createdAt,value
2022-09-06T00:00:44.324Z,17.59
2022-09-06T00:03:10.789Z,17.58
2022-09-06T00:05:37.867Z,17.54
2022-09-06T00:08:05.957Z,17.59
2022-09-06T00:10:33.406Z,17.52
2022-09-06T00:13:05.395Z,17.52
2022-09-06T00:15:31.977Z,17.53
2022-09-06T00:18:00.005Z,17.46
2022-09-06T00:20:27.942Z,17.41
2022-09-06T00:23:02.208Z,17.40
2022-09-06T00:25:29.403Z,17.35
2022-09-06T00:27:57.594Z,17.33
2022-09-06T00:30:25.489Z,17.22
2022-09-06T00:32:53.154Z,17.26
2022-09-06T00:35:20.888Z,17.15
2022-09-06T00:37:47.952Z,17.22
2022-09-06T00:40:14.900Z,17.18
2022-09-06T00:42:41.615Z,17.16
2022-09-06T00:45:17.991Z,17.11
2022-09-06T00:47:45.386Z,17.09
2022-09-06T00:50:13.871Z,17.01
2022-09-06T00:52:42.246Z,17.01
2022-09-06T00:55:09.071Z,17.01
2022-09-06T00:57:36.027Z,16.96
2022-09-06T01:00:05.377Z,16.95
2022-09-06T01:02:31.955Z,16.92
2022-09-06T01:04:58.809Z,16.91
2022-09-06T01:08:02.730Z,16.92
2022-09-06T01:10:41.700Z,16.94
2022-09-06T01:13:24.675Z,16.89
2022-09-06T01:16:15.850Z,16.91
2022-09-06T01:19:25.786Z,16.83
2022-09-06T01:22:35.735Z,16.86
2022-09-06T01:25:20.777Z,16.81
2022-09-06T01:28:29.291Z,16.80
2022-09-06T01:31:25.132Z,16.83
2022-09-06T01:34:03.743Z,16.82
2022-09-06T01:36:45.924Z,16.73
2022-09-06T01:39:29.877Z,16.75
2022-09-06T01:41:58.508Z,16.75
2022-09-06T01:44:27.323Z,16.74
2022-09-06T01:46:58.024Z,16.70
2022-09-06T01:49:36.298Z,16.59
2022-09-06T01:52:21.861Z,16.68
2022-09-06T01:55:14.045Z,16.62
2022-09-06T01:58:08.254Z,16.55
2022-09-06T02:00:43.666Z,16.51
2022-09-06T02:03:32.989Z,16.56
2022-09-06T02:06:17.266Z,16.54
2022-09-06T02:09:04.619Z,16.45
2022-09-06T02:11:37.737Z,16.45
2022-09-06T02:14:10.919Z,16.44
2022-09-06T02:16:40.874Z,16.42
2022-09-06T02:19:14.803Z,16.41
2022-09-06T02:21:45.547Z,16.35
2022-09-06T02:24:18.724Z,16.35
2022-09-06T02:26:46.601Z,16.37
2022-09-06T02:29:13.767Z,16.30
2022-09-06T02:31:47.872Z,16.33
2022-09-06T02:34:17.897Z,16.27
2022-09-06T02:36:44.765Z,16.24
2022-09-06T02:39:12.419Z,16.20
2022-09-06T02:41:41.190Z,16.20
2022-09-06T02:44:07.684Z,16.21
2022-09-06T02:46:34.179Z,16.13
2022-09-06T02:49:00.652Z,16.00
2022-09-06T02:51:27.100Z,15.95
2022-09-06T02:53:53.534Z,16.01
2022-09-06T02:56:19.984Z,15.89
2022-09-06T02:58:46.429Z,15.89
2022-09-06T03:01:12.922Z,15.80
2022-09-06T03:03:39.406Z,15.87
2022-09-06T03:06:06.048Z,15.81
2022-09-06T03:08:34.145Z,15.87
2022-09-06T03:11:00.994Z,15.77
2022-09-06T03:13:27.964Z,15.74
2022-09-06T03:15:57.147Z,15.69
2022-09-06T03:18:25.030Z,15.77
2022-09-06T03:20:52.869Z,15.72
2022-09-06T03:23:20.437Z,15.70
2022-09-06T03:25:47.187Z,15.68
2022-09-06T03:28:13.890Z,15.62
2022-09-06T03:30:40.944Z,15.61
2022-09-06T03:33:07.435Z,15.57
2022-09-06T03:35:33.982Z,15.63
2022-09-06T03:38:00.402Z,15.63
2022-09-06T03:40:26.862Z,15.61
2022-09-06T03:42:53.335Z,15.55
2022-09-06T03:45:20.258Z,15.57
2022-09-06T03:47:46.682Z,15.61
2022-09-06T03:50:13.134Z,15.56
2022-09-06T03:52:39.546Z,15.56
2022-09-06T03:55:06.465Z,15.56
2022-09-06T03:57:33.174Z,15.49
2022-09-06T03:59:59.606Z,15.46
2022-09-06T04:02:26.131Z,15.44
2022-09-06T04:04:55.463Z,15.43
2022-09-06T04:07:22.964Z,15.35
2022-09-06T04:09:49.570Z,15.37
2022-09-06T04:12:16.011Z,15.37
2022-09-06T04:14:42.463Z,15.37
2022-09-06T04:17:08.906Z,15.34
2022-09-06T04:19:35.349Z,15.29
2022-09-06T04:22:01.802Z,15.26
2022-09-06T04:24:28.246Z,15.22
2022-09-06T04:26:54.672Z,15.25
2022-09-06T04:29:21.121Z,15.13
2022-09-06T04:31:47.581Z,15.14
2022-09-06T04:34:14.164Z,15.17
2022-09-06T04:36:40.606Z,15.13
2022-09-06T04:39:07.089Z,15.10
2022-09-06T04:41:33.547Z,15.13
2022-09-06T04:44:00.006Z,15.10
2022-09-06T04:46:30.575Z,15.09
2022-09-06T04:48:57.766Z,15.17
2022-09-06T04:51:25.235Z,15.14
2022-09-06T04:53:52.371Z,15.16
2022-09-06T04:56:21.879Z,15.23
2022-09-06T04:58:49.509Z,15.22
2022-09-06T05:01:16.297Z,15.15
2022-09-06T05:03:42.993Z,15.20
2022-09-06T05:06:21.398Z,15.32
2022-09-06T05:08:48.574Z,15.33
2022-09-06T05:11:15.617Z,15.42
2022-09-06T05:13:42.288Z,15.46
2022-09-06T05:16:09.541Z,15.59
2022-09-06T05:18:36.187Z,15.63
2022-09-06T05:21:02.735Z,15.77
2022-09-06T05:23:29.340Z,15.76
2022-09-06T05:25:55.789Z,15.86
2022-09-06T05:28:23.059Z,16.05
2022-09-06T05:30:49.503Z,16.10
2022-09-06T05:33:21.203Z,16.19
2022-09-06T05:35:48.901Z,16.30
2022-09-06T05:38:15.639Z,16.45
2022-09-06T05:40:42.156Z,16.42
2022-09-06T05:43:08.596Z,16.49
2022-09-06T05:45:35.060Z,16.53
2022-09-06T05:48:01.617Z,16.72
2022-09-06T05:50:30.870Z,16.71
2022-09-06T05:52:57.295Z,16.71
2022-09-06T05:55:23.761Z,16.81
2022-09-06T05:57:50.194Z,16.75
2022-09-06T06:00:16.866Z,16.59
2022-09-06T06:02:43.360Z,16.62
2022-09-06T06:05:09.831Z,16.71
2022-09-06T06:07:36.247Z,16.86
2022-09-06T06:10:02.797Z,16.89
2022-09-06T06:12:29.267Z,17.07
2022-09-06T06:14:55.678Z,17.11
2022-09-06T06:17:22.092Z,17.23
2022-09-06T06:19:48.581Z,17.16
2022-09-06T06:22:15.025Z,17.40
2022-09-06T06:24:41.449Z,17.56
2022-09-06T06:27:07.870Z,17.70
2022-09-06T06:29:34.307Z,17.87
2022-09-06T06:32:00.831Z,17.89
2022-09-06T06:34:27.334Z,18.10
2022-09-06T06:36:53.752Z,18.03
2022-09-06T06:39:20.191Z,18.09
2022-09-06T06:41:47.866Z,18.11
2022-09-06T06:44:37.691Z,18.16
2022-09-06T06:47:04.163Z,18.52
2022-09-06T06:49:30.603Z,18.76
2022-09-06T06:51:57.051Z,18.95
2022-09-06T06:54:23.482Z,18.91
2022-09-06T06:56:49.909Z,19.02
2022-09-06T06:59:16.334Z,18.95
2022-09-06T07:01:42.972Z,19.05
2022-09-06T07:04:10.478Z,18.78
2022-09-06T07:12:24.477Z,18.59
2022-09-06T07:14:50.966Z,18.66
2022-09-06T07:17:17.370Z,18.89
2022-09-06T07:22:30.211Z,19.03
2022-09-06T07:24:56.622Z,18.81
2022-09-06T07:30:10.362Z,18.82
2022-09-06T07:32:36.981Z,18.73
2022-09-06T07:35:03.621Z,18.83
2022-09-06T07:37:30.060Z,19.01
2022-09-06T07:39:56.575Z,19.15
2022-09-06T07:42:23.062Z,19.19
2022-09-06T07:44:49.477Z,19.13
2022-09-06T07:55:33.454Z,19.14
2022-09-06T07:57:59.893Z,19.23
2022-09-06T08:00:26.408Z,19.34
2022-09-06T08:02:52.863Z,19.35
2022-09-06T08:10:52.184Z,19.18
2022-09-06T08:13:18.647Z,19.10
2022-09-06T08:15:45.110Z,19.08
2022-09-06T08:18:11.713Z,19.11
2022-09-06T08:20:38.158Z,19.16
2022-09-06T08:23:12.201Z,19.35
2022-09-06T08:25:38.766Z,19.55
2022-09-06T08:28:05.211Z,19.57
2022-09-06T08:30:33.225Z,19.45
2022-09-06T08:32:59.777Z,19.38
2022-09-06T08:35:26.239Z,19.52
2022-09-06T08:37:52.691Z,19.67
2022-09-06T08:40:23.679Z,19.79
2022-09-06T08:42:50.563Z,19.65
2022-09-06T08:45:23.236Z,19.70
2022-09-06T08:47:52.315Z,19.67
2022-09-06T08:50:19.845Z,19.82
2022-09-06T08:53:06.170Z,19.95
2022-09-06T08:55:52.844Z,20.17
2022-09-06T08:58:34.755Z,20.11
2022-09-06T09:01:06.108Z,20.21
2022-09-06T09:03:36.839Z,20.45
2022-09-06T09:06:06.559Z,20.38
2022-09-06T09:08:42.999Z,20.56
2022-09-06T09:11:15.293Z,20.62
2022-09-06T09:14:01.659Z,20.61
2022-09-06T09:16:28.199Z,20.46
2022-09-06T09:19:01.872Z,20.45
2022-09-06T09:21:32.191Z,20.57
2022-09-06T09:24:04.363Z,20.60
2022-09-06T09:26:36.875Z,20.51
2022-09-06T09:29:09.079Z,20.51
2022-09-06T09:31:39.193Z,20.52
2022-09-06T09:34:10.371Z,20.56
2022-09-06T09:36:36.995Z,20.51
2022-09-06T09:39:09.891Z,20.56
2022-09-06T09:41:40.831Z,20.62
2022-09-06T09:44:09.470Z,20.49
2022-09-06T09:46:37.655Z,20.60
2022-09-06T09:49:28.610Z,20.69
2022-09-06T09:52:14.717Z,20.63
2022-09-06T09:54:44.437Z,20.57
2022-09-06T09:57:18.724Z,20.52
2022-09-06T09:59:50.408Z,20.47
2022-09-06T10:02:25.141Z,20.56
2022-09-06T10:05:04.096Z,20.58
2022-09-06T10:07:32.675Z,20.56
2022-09-06T10:10:10.721Z,20.60
2022-09-06T10:12:39.523Z,20.70
2022-09-06T10:15:11.799Z,20.64
2022-09-06T10:17:47.163Z,20.69
2022-09-06T10:20:13.907Z,20.56
2022-09-06T10:22:58.772Z,20.63
2022-09-06T10:25:49.052Z,20.76
2022-09-06T10:28:31.342Z,20.79
2022-09-06T10:31:36.795Z,20.79
2022-09-06T10:34:20.114Z,20.80
2022-09-06T10:37:01.303Z,20.88
2022-09-06T10:39:42.302Z,21.03
2022-09-06T10:42:27.333Z,21.03
2022-09-06T10:45:16.102Z,21.09
2022-09-06T10:48:02.639Z,21.39
2022-09-06T10:50:43.581Z,21.43
2022-09-06T10:53:16.541Z,21.43
2022-09-06T10:55:49.131Z,21.67
2022-09-06T10:58:22.185Z,21.50
2022-09-06T11:00:50.512Z,21.44
2022-09-06T11:06:19.499Z,21.42
2022-09-06T11:08:58.168Z,21.38
2022-09-06T11:11:43.924Z,21.35
2022-09-06T11:14:13.604Z,21.44
2022-09-06T11:16:48.074Z,21.51
2022-09-06T11:19:29.881Z,21.47
2022-09-06T11:22:44.407Z,21.52
2022-09-06T11:25:44.004Z,21.49
2022-09-06T11:28:15.802Z,21.54
2022-09-06T11:30:47.008Z,21.52
2022-09-06T11:33:23.236Z,21.69
2022-09-06T11:35:50.439Z,21.64
2022-09-06T11:38:16.811Z,21.64
2022-09-06T11:40:56.290Z,21.59
2022-09-06T11:43:46.604Z,21.59
2022-09-06T11:46:34.822Z,21.61
2022-09-06T11:49:10.947Z,21.67
2022-09-06T11:51:46.718Z,21.82
2022-09-06T11:54:18.891Z,21.79
2022-09-06T11:56:57.479Z,21.84
2022-09-06T11:59:31.734Z,21.87
2022-09-06T12:01:58.091Z,21.92
2022-09-06T12:04:24.667Z,21.87
2022-09-06T12:07:11.340Z,21.88
2022-09-06T12:09:40.722Z,21.96
2022-09-06T12:12:09.452Z,21.97
2022-09-06T12:14:40.889Z,22.01
2022-09-06T12:17:08.335Z,22.19
2022-09-06T12:19:44.982Z,22.24
2022-09-06T12:22:26.604Z,22.39
2022-09-06T12:25:01.705Z,22.48
2022-09-06T12:27:31.730Z,22.54
2022-09-06T12:30:00.031Z,22.48
2022-09-06T12:32:48.386Z,22.68
2022-09-06T12:38:11.991Z,22.89
2022-09-06T12:40:45.327Z,23.03
2022-09-06T12:43:14.455Z,23.24
2022-09-06T12:45:50.764Z,23.29
2022-09-06T12:48:31.438Z,23.53
2022-09-06T12:51:21.071Z,23.69
2022-09-06T12:53:55.262Z,23.61
2022-09-06T12:56:23.612Z,23.35
2022-09-06T12:58:50.375Z,23.34
2022-09-06T13:01:26.652Z,23.35
2022-09-06T13:04:02.740Z,23.43
2022-09-06T13:06:33.424Z,23.47
2022-09-06T13:09:01.446Z,23.63
2022-09-06T13:11:36.626Z,23.69
2022-09-06T13:14:14.276Z,23.54
2022-09-06T13:16:47.228Z,23.62
2022-09-06T13:19:16.210Z,23.64
2022-09-06T13:21:47.210Z,23.71
2022-09-06T13:24:32.146Z,23.63
2022-09-06T13:26:58.583Z,23.85
2022-09-06T13:29:30.580Z,24.08
2022-09-06T13:31:59.644Z,24.18
2022-09-06T13:34:28.771Z,24.04
2022-09-06T13:37:01.922Z,24.36
2022-09-06T13:39:37.531Z,24.63
2022-09-06T13:42:24.614Z,24.69
2022-09-06T13:44:51.157Z,24.61
2022-09-06T13:47:17.583Z,24.79
2022-09-06T13:49:44.083Z,24.77
2022-09-06T13:52:10.515Z,24.72
2022-09-06T13:54:37.057Z,24.64
2022-09-06T13:57:03.671Z,24.63
2022-09-06T13:59:30.474Z,24.38
2022-09-06T14:02:05.787Z,24.31
2022-09-06T14:04:39.622Z,24.30
2022-09-06T14:07:07.351Z,24.33
2022-09-06T14:09:33.845Z,24.50
2022-09-06T14:12:00.673Z,24.70
2022-09-06T14:14:27.092Z,24.65
2022-09-06T14:16:54.042Z,24.89
2022-09-06T14:19:20.458Z,24.80
2022-09-06T14:21:46.907Z,24.80
2022-09-06T14:24:13.340Z,24.78
2022-09-06T14:26:39.842Z,24.63
2022-09-06T14:29:06.530Z,24.63
2022-09-06T14:31:33.026Z,24.48
2022-09-06T14:34:00.859Z,24.55
2022-09-06T14:36:31.934Z,24.55
2022-09-06T14:39:00.004Z,24.46
2022-09-06T14:41:27.066Z,24.40
2022-09-06T14:43:55.980Z,24.43
2022-09-06T14:46:23.255Z,24.53
2022-09-06T14:48:56.948Z,24.44
2022-09-06T14:51:24.818Z,24.69
2022-09-06T14:53:54.195Z,24.44
2022-09-06T14:56:21.017Z,24.19
2022-09-06T14:58:47.457Z,24.21
2022-09-06T15:01:16.168Z,24.21
2022-09-06T15:03:46.740Z,24.06
2022-09-06T15:06:13.260Z,23.76
2022-09-06T15:08:39.687Z,23.80
2022-09-06T15:11:08.060Z,23.77
2022-09-06T15:13:38.714Z,23.68
2022-09-06T15:16:06.607Z,23.69
2022-09-06T15:18:33.580Z,23.60
2022-09-06T15:21:11.031Z,23.48
2022-09-06T15:23:37.676Z,23.37
2022-09-06T15:26:07.815Z,23.44
2022-09-06T15:28:35.498Z,23.43
2022-09-06T15:31:01.993Z,23.42
2022-09-06T15:33:30.546Z,23.41
2022-09-06T15:35:57.181Z,23.47
2022-09-06T15:38:24.111Z,23.31
2022-09-06T15:40:50.803Z,23.34
2022-09-06T15:43:17.214Z,23.33
2022-09-06T15:45:49.419Z,23.21
2022-09-06T15:48:17.354Z,23.21
2022-09-06T15:50:51.709Z,23.15
2022-09-06T15:53:19.592Z,23.25
2022-09-06T15:55:58.487Z,23.20
2022-09-06T15:58:26.684Z,23.17
2022-09-06T16:01:08.670Z,23.06
2022-09-06T16:03:37.380Z,23.00
2022-09-06T16:06:26.846Z,22.94
2022-09-06T16:09:03.750Z,22.94
2022-09-06T16:11:32.587Z,22.97
2022-09-06T16:13:59.177Z,23.03
2022-09-06T16:16:25.749Z,22.92
2022-09-06T16:18:52.312Z,22.89
2022-09-06T16:21:23.828Z,22.93
2022-09-06T16:23:53.859Z,22.98
2022-09-06T16:26:22.023Z,22.97
2022-09-06T16:28:50.535Z,22.93
2022-09-06T16:31:17.883Z,22.90
2022-09-06T16:33:45.571Z,22.93
2022-09-06T16:36:13.874Z,22.94
2022-09-06T16:38:41.753Z,22.94
2022-09-06T16:41:19.701Z,22.91
2022-09-06T16:43:47.376Z,22.88
2022-09-06T16:46:13.878Z,22.81
2022-09-06T16:48:42.957Z,22.90
2022-09-06T16:51:18.176Z,22.98
2022-09-06T16:53:46.938Z,22.82
2022-09-06T16:56:16.234Z,22.76
2022-09-06T16:58:44.305Z,22.64
2022-09-06T17:01:10.999Z,22.74
2022-09-06T17:03:38.453Z,22.74
2022-09-06T17:06:06.145Z,22.65
2022-09-06T17:08:34.245Z,22.61
2022-09-06T17:11:06.583Z,22.67
2022-09-06T17:13:33.044Z,22.59
2022-09-06T17:16:22.118Z,22.57
2022-09-06T17:18:50.047Z,22.49
2022-09-06T17:21:16.468Z,22.51
2022-09-06T17:23:43.018Z,22.43
2022-09-06T17:26:09.431Z,22.40
2022-09-06T17:28:37.383Z,22.50
2022-09-06T17:31:05.465Z,22.42
2022-09-06T17:33:32.027Z,22.35
2022-09-06T17:36:07.060Z,22.46
2022-09-06T17:38:34.467Z,22.41
2022-09-06T17:41:02.203Z,22.35
2022-09-06T17:43:28.818Z,22.38
2022-09-06T17:45:55.316Z,22.32
2022-09-06T17:48:21.979Z,22.33
2022-09-06T17:50:48.498Z,22.38
2022-09-06T17:53:14.955Z,22.38
2022-09-06T17:55:41.898Z,22.29
2022-09-06T17:58:08.662Z,22.29
2022-09-06T18:00:39.385Z,22.34
2022-09-06T18:03:07.134Z,22.27
2022-09-06T18:05:39.654Z,22.22
2022-09-06T18:08:07.883Z,22.26
2022-09-06T18:10:38.260Z,22.26
2022-09-06T18:13:06.006Z,22.11
2022-09-06T18:15:38.141Z,22.15
2022-09-06T18:18:04.596Z,22.12
2022-09-06T18:20:31.054Z,22.01
2022-09-06T18:22:58.029Z,22.01
2022-09-06T18:25:24.593Z,21.95
2022-09-06T18:27:51.191Z,21.93
2022-09-06T18:30:17.866Z,21.94
2022-09-06T18:32:44.726Z,22.02
2022-09-06T18:35:11.274Z,21.93
2022-09-06T18:37:38.086Z,21.86
2022-09-06T18:40:05.163Z,21.82
2022-09-06T18:42:31.975Z,21.74
2022-09-06T18:44:58.526Z,21.77
2022-09-06T18:47:24.977Z,21.77
2022-09-06T18:49:51.443Z,21.71
2022-09-06T18:52:20.073Z,21.77
2022-09-06T18:54:46.526Z,21.77
2022-09-06T18:57:13.027Z,21.81
2022-09-06T18:59:39.510Z,21.67
2022-09-06T19:02:06.422Z,21.68
2022-09-06T19:04:32.993Z,21.71
2022-09-06T19:07:02.124Z,21.74
2022-09-06T19:09:30.922Z,21.65
2022-09-06T19:11:57.356Z,21.50
2022-09-06T19:14:23.807Z,21.52
2022-09-06T19:16:51.634Z,21.47
2022-09-06T19:19:18.202Z,21.53
2022-09-06T19:21:44.629Z,21.51
2022-09-06T19:24:12.535Z,21.49
2022-09-06T19:26:41.683Z,21.28
2022-09-06T19:29:13.363Z,21.21
2022-09-06T19:31:39.958Z,21.24
2022-09-06T19:34:06.466Z,21.27
2022-09-06T19:36:33.179Z,21.30
2022-09-06T19:39:03.982Z,21.26
2022-09-06T19:41:33.164Z,21.27
2022-09-06T19:44:00.123Z,21.30
2022-09-06T19:46:27.529Z,21.21
2022-09-06T19:48:56.098Z,21.24
2022-09-06T19:51:23.565Z,21.31
2022-09-06T19:53:57.256Z,21.31
2022-09-06T19:56:26.432Z,21.22
2022-09-06T19:59:15.562Z,21.28
2022-09-06T20:01:43.372Z,21.24
2022-09-06T20:04:11.877Z,21.21
2022-09-06T20:06:38.463Z,21.13
2022-09-06T20:09:07.607Z,21.10
2022-09-06T20:11:35.974Z,21.12
2022-09-06T20:14:02.495Z,21.07
2022-09-06T20:16:30.511Z,21.11
2022-09-06T20:18:58.974Z,21.13
2022-09-06T20:21:26.826Z,21.09
2022-09-06T20:23:55.692Z,21.13
2022-09-06T20:26:24.021Z,21.15
2022-09-06T20:28:55.718Z,21.08
2022-09-06T20:31:22.308Z,21.11
2022-09-06T20:33:49.953Z,21.13
2022-09-06T20:36:18.182Z,21.09
2022-09-06T20:38:45.797Z,21.01
2022-09-06T20:41:17.976Z,20.95
2022-09-06T20:43:45.080Z,20.94
2022-09-06T20:46:17.171Z,20.78
2022-09-06T20:48:45.527Z,20.85
2022-09-06T20:51:15.516Z,20.77
2022-09-06T20:53:42.508Z,20.83
2022-09-06T20:56:14.149Z,20.77
2022-09-06T20:58:41.473Z,20.75
2022-09-06T21:01:15.458Z,20.72
2022-09-06T21:03:42.749Z,20.71
2022-09-06T21:06:10.639Z,20.77
2022-09-06T21:08:42.375Z,20.65
2022-09-06T21:11:09.805Z,20.71
2022-09-06T21:13:36.630Z,20.70
2022-09-06T21:16:03.687Z,20.74
2022-09-06T21:18:31.286Z,20.69
2022-09-06T21:21:04.075Z,20.54
2022-09-06T21:23:32.809Z,20.47
2022-09-06T21:26:11.510Z,20.37
2022-09-06T21:28:39.817Z,20.39
2022-09-06T21:31:09.117Z,20.41
2022-09-06T21:33:37.505Z,20.34
2022-09-06T21:36:06.991Z,20.31
2022-09-06T21:38:38.660Z,20.35
2022-09-06T21:41:06.938Z,20.36
2022-09-06T21:43:38.276Z,20.31
2022-09-06T21:46:11.801Z,20.25
2022-09-06T21:48:39.308Z,20.29
2022-09-06T21:51:10.450Z,20.23
2022-09-06T21:53:37.236Z,20.19
2022-09-06T21:56:04.926Z,20.16
2022-09-06T21:58:32.587Z,20.22
2022-09-06T22:01:01.272Z,20.20
2022-09-06T22:03:30.390Z,20.17
2022-09-06T22:05:57.258Z,20.06
2022-09-06T22:08:24.819Z,20.07
2022-09-06T22:10:51.868Z,19.97
2022-09-06T22:13:20.173Z,20.01
2022-09-06T22:15:46.720Z,20.01
2022-09-06T22:18:13.559Z,19.97
2022-09-06T22:20:40.174Z,19.79
2022-09-06T22:23:08.202Z,19.78
2022-09-06T22:25:34.713Z,19.78
2022-09-06T22:28:01.357Z,19.73
2022-09-06T22:30:27.783Z,19.71
2022-09-06T22:32:54.508Z,19.64
2022-09-06T22:35:21.374Z,19.62
2022-09-06T22:37:47.822Z,19.56
2022-09-06T22:40:14.246Z,19.62
2022-09-06T22:42:40.731Z,19.69
2022-09-06T22:45:07.611Z,19.67
2022-09-06T22:47:34.037Z,19.65
2022-09-06T22:50:00.458Z,19.65
2022-09-06T22:52:26.963Z,19.64
2022-09-06T22:54:53.377Z,19.71
2022-09-06T22:57:19.803Z,19.65
2022-09-06T22:59:46.264Z,19.74
2022-09-06T23:02:12.701Z,19.77
2022-09-06T23:04:39.193Z,19.72
2022-09-06T23:07:05.951Z,19.57
2022-09-06T23:09:32.403Z,19.63
2022-09-06T23:11:58.839Z,19.68
2022-09-06T23:14:27.880Z,19.65
2022-09-06T23:16:54.357Z,19.55
2022-09-06T23:19:20.812Z,19.55
2022-09-06T23:21:47.234Z,19.50
2022-09-06T23:24:13.713Z,19.49
2022-09-06T23:26:40.194Z,19.48
2022-09-06T23:29:07.828Z,19.51
2022-09-06T23:31:34.452Z,19.43
2022-09-06T23:34:02.490Z,19.44
2022-09-06T23:36:29.439Z,19.50
2022-09-06T23:38:56.035Z,19.51
2022-09-06T23:41:23.544Z,19.49
2022-09-06T23:43:50.172Z,19.57
2022-09-06T23:46:16.838Z,19.61
2022-09-06T23:48:43.508Z,19.49
2022-09-06T23:51:10.977Z,19.48
2022-09-06T23:53:37.597Z,19.45
2022-09-06T23:56:04.986Z,19.40
2022-09-06T23:58:31.717Z,19.32
